sensor_id;sensor_type;location;lat;lon;timestamp;P1;durP1;ratioP1;P2;durP2;ratioP2
45620;SDS011;31345;51.522;10.702;2022-07-23T00:00:26;6.68;;;4.80;;
45620;SDS011;31345;51.522;10.702;2022-07-23T00:02:54;8.95;;;5.28;;
45620;SDS011;31345;51.522;10.702;2022-07-23T00:05:22;8.95;;;4.93;;
45620;SDS011;31345;51.522;10.702;2022-07-23T00:07:49;6.35;;;5.03;;
45620;SDS011;31345;51.522;10.702;2022-07-23T00:10:17;8.85;;;4.90;;
45620;SDS011;31345;51.522;10.702;2022-07-23T00:12:45;9.75;;;5.63;;
45620;SDS011;31345;51.522;10.702;2022-07-23T00:15:14;6.68;;;5.10;;
45620;SDS011;31345;51.522;10.702;2022-07-23T00:17:41;6.15;;;5.28;;
45620;SDS011;31345;51.522;10.702;2022-07-23T00:20:09;6.00;;;5.30;;
45620;SDS011;31345;51.522;10.702;2022-07-23T00:22:40;8.07;;;5.53;;
45620;SDS011;31345;51.522;10.702;2022-07-23T00:25:22;8.57;;;5.30;;
45620;SDS011;31345;51.522;10.702;2022-07-23T00:27:51;9.95;;;5.60;;
45620;SDS011;31345;51.522;10.702;2022-07-23T00:30:20;20.73;;;7.28;;
45620;SDS011;31345;51.522;10.702;2022-07-23T00:32:48;12.43;;;7.15;;
45620;SDS011;31345;51.522;10.702;2022-07-23T00:35:19;14.70;;;7.07;;
45620;SDS011;31345;51.522;10.702;2022-07-23T00:37:48;10.50;;;6.80;;
45620;SDS011;31345;51.522;10.702;2022-07-23T00:40:16;12.60;;;8.10;;
45620;SDS011;31345;51.522;10.702;2022-07-23T00:42:44;12.57;;;7.43;;
45620;SDS011;31345;51.522;10.702;2022-07-23T00:45:11;13.55;;;8.23;;
45620;SDS011;31345;51.522;10.702;2022-07-23T00:47:41;14.20;;;7.93;;
45620;SDS011;31345;51.522;10.702;2022-07-23T00:50:08;14.88;;;8.45;;
45620;SDS011;31345;51.522;10.702;2022-07-23T00:52:37;13.23;;;8.60;;
45620;SDS011;31345;51.522;10.702;2022-07-23T00:55:07;14.80;;;9.40;;
45620;SDS011;31345;51.522;10.702;2022-07-23T00:57:36;15.75;;;9.95;;
45620;SDS011;31345;51.522;10.702;2022-07-23T01:00:05;17.02;;;9.70;;
45620;SDS011;31345;51.522;10.702;2022-07-23T01:02:35;16.90;;;9.52;;
45620;SDS011;31345;51.522;10.702;2022-07-23T01:05:04;20.50;;;11.13;;
45620;SDS011;31345;51.522;10.702;2022-07-23T01:07:33;15.43;;;10.10;;
45620;SDS011;31345;51.522;10.702;2022-07-23T01:10:00;14.43;;;9.20;;
45620;SDS011;31345;51.522;10.702;2022-07-23T01:12:29;12.73;;;8.73;;
45620;SDS011;31345;51.522;10.702;2022-07-23T01:14:57;16.42;;;9.02;;
45620;SDS011;31345;51.522;10.702;2022-07-23T01:17:28;15.65;;;9.70;;
45620;SDS011;31345;51.522;10.702;2022-07-23T01:19:56;14.85;;;8.75;;
45620;SDS011;31345;51.522;10.702;2022-07-23T01:24:59;15.02;;;9.75;;
45620;SDS011;31345;51.522;10.702;2022-07-23T01:27:28;15.48;;;8.63;;
45620;SDS011;31345;51.522;10.702;2022-07-23T01:30:02;13.30;;;9.38;;
45620;SDS011;31345;51.522;10.702;2022-07-23T01:32:31;16.65;;;9.02;;
45620;SDS011;31345;51.522;10.702;2022-07-23T01:34:58;17.75;;;10.27;;
45620;SDS011;31345;51.522;10.702;2022-07-23T01:37:26;17.20;;;9.20;;
45620;SDS011;31345;51.522;10.702;2022-07-23T01:39:56;15.77;;;10.80;;
45620;SDS011;31345;51.522;10.702;2022-07-23T01:42:24;17.73;;;10.07;;
45620;SDS011;31345;51.522;10.702;2022-07-23T01:44:52;17.40;;;10.50;;
45620;SDS011;31345;51.522;10.702;2022-07-23T01:47:21;17.95;;;9.70;;
45620;SDS011;31345;51.522;10.702;2022-07-23T01:49:52;14.82;;;10.25;;
45620;SDS011;31345;51.522;10.702;2022-07-23T01:52:40;15.25;;;9.80;;
45620;SDS011;31345;51.522;10.702;2022-07-23T01:55:09;17.52;;;10.25;;
45620;SDS011;31345;51.522;10.702;2022-07-23T01:57:41;15.82;;;10.63;;
45620;SDS011;31345;51.522;10.702;2022-07-23T02:00:12;18.33;;;10.00;;
45620;SDS011;31345;51.522;10.702;2022-07-23T02:02:40;20.83;;;9.98;;
45620;SDS011;31345;51.522;10.702;2022-07-23T02:05:08;13.55;;;9.50;;
45620;SDS011;31345;51.522;10.702;2022-07-23T02:07:36;15.85;;;10.45;;
45620;SDS011;31345;51.522;10.702;2022-07-23T02:10:04;26.38;;;12.82;;
45620;SDS011;31345;51.522;10.702;2022-07-23T02:12:34;16.55;;;11.43;;
45620;SDS011;31345;51.522;10.702;2022-07-23T02:15:02;17.50;;;10.85;;
45620;SDS011;31345;51.522;10.702;2022-07-23T02:17:30;17.27;;;10.50;;
45620;SDS011;31345;51.522;10.702;2022-07-23T02:20:01;16.38;;;9.50;;
45620;SDS011;31345;51.522;10.702;2022-07-23T02:22:29;18.70;;;11.00;;
45620;SDS011;31345;51.522;10.702;2022-07-23T02:24:57;17.65;;;10.80;;
45620;SDS011;31345;51.522;10.702;2022-07-23T02:27:24;19.40;;;11.18;;
45620;SDS011;31345;51.522;10.702;2022-07-23T02:29:55;21.85;;;12.05;;
45620;SDS011;31345;51.522;10.702;2022-07-23T02:32:26;20.00;;;11.57;;
45620;SDS011;31345;51.522;10.702;2022-07-23T02:34:54;18.27;;;10.57;;
45620;SDS011;31345;51.522;10.702;2022-07-23T02:37:21;16.23;;;10.35;;
45620;SDS011;31345;51.522;10.702;2022-07-23T02:39:49;14.73;;;10.07;;
45620;SDS011;31345;51.522;10.702;2022-07-23T02:42:17;13.25;;;8.35;;
45620;SDS011;31345;51.522;10.702;2022-07-23T02:44:48;11.73;;;9.43;;
45620;SDS011;31345;51.522;10.702;2022-07-23T02:47:19;13.02;;;8.57;;
45620;SDS011;31345;51.522;10.702;2022-07-23T02:49:50;15.52;;;8.90;;
45620;SDS011;31345;51.522;10.702;2022-07-23T02:52:18;12.98;;;9.10;;
45620;SDS011;31345;51.522;10.702;2022-07-23T02:54:45;12.77;;;9.45;;
45620;SDS011;31345;51.522;10.702;2022-07-23T02:57:16;15.07;;;8.52;;
45620;SDS011;31345;51.522;10.702;2022-07-23T02:59:44;12.63;;;7.32;;
45620;SDS011;31345;51.522;10.702;2022-07-23T03:02:14;16.23;;;9.20;;
45620;SDS011;31345;51.522;10.702;2022-07-23T03:04:43;13.57;;;9.05;;
45620;SDS011;31345;51.522;10.702;2022-07-23T03:07:11;12.93;;;7.90;;
45620;SDS011;31345;51.522;10.702;2022-07-23T03:09:39;14.40;;;9.27;;
45620;SDS011;31345;51.522;10.702;2022-07-23T03:12:08;13.70;;;9.30;;
45620;SDS011;31345;51.522;10.702;2022-07-23T03:14:38;13.35;;;8.65;;
45620;SDS011;31345;51.522;10.702;2022-07-23T03:17:06;14.63;;;9.05;;
45620;SDS011;31345;51.522;10.702;2022-07-23T03:19:34;12.52;;;8.48;;
45620;SDS011;31345;51.522;10.702;2022-07-23T03:22:04;11.13;;;7.75;;
45620;SDS011;31345;51.522;10.702;2022-07-23T03:24:31;11.00;;;7.40;;
45620;SDS011;31345;51.522;10.702;2022-07-23T03:27:14;10.30;;;6.40;;
45620;SDS011;31345;51.522;10.702;2022-07-23T03:29:41;9.23;;;6.90;;
45620;SDS011;31345;51.522;10.702;2022-07-23T03:32:12;11.98;;;6.82;;
45620;SDS011;31345;51.522;10.702;2022-07-23T03:34:40;8.35;;;6.30;;
45620;SDS011;31345;51.522;10.702;2022-07-23T03:37:09;7.22;;;5.70;;
45620;SDS011;31345;51.522;10.702;2022-07-23T03:39:37;6.97;;;4.07;;
45620;SDS011;31345;51.522;10.702;2022-07-23T03:42:05;4.60;;;2.90;;
45620;SDS011;31345;51.522;10.702;2022-07-23T03:44:33;5.05;;;3.58;;
45620;SDS011;31345;51.522;10.702;2022-07-23T03:47:03;6.00;;;3.92;;
45620;SDS011;31345;51.522;10.702;2022-07-23T03:49:31;5.22;;;3.67;;
45620;SDS011;31345;51.522;10.702;2022-07-23T03:52:00;6.07;;;3.65;;
45620;SDS011;31345;51.522;10.702;2022-07-23T03:54:29;5.68;;;3.70;;
45620;SDS011;31345;51.522;10.702;2022-07-23T03:56:57;5.30;;;3.83;;
45620;SDS011;31345;51.522;10.702;2022-07-23T03:59:25;5.80;;;4.22;;
45620;SDS011;31345;51.522;10.702;2022-07-23T04:01:52;6.78;;;4.45;;
45620;SDS011;31345;51.522;10.702;2022-07-23T04:04:20;5.75;;;4.13;;
45620;SDS011;31345;51.522;10.702;2022-07-23T04:06:48;7.35;;;4.28;;
45620;SDS011;31345;51.522;10.702;2022-07-23T04:09:15;4.72;;;3.75;;
45620;SDS011;31345;51.522;10.702;2022-07-23T04:11:44;4.00;;;3.30;;
45620;SDS011;31345;51.522;10.702;2022-07-23T04:14:12;4.68;;;3.25;;
45620;SDS011;31345;51.522;10.702;2022-07-23T04:16:40;5.93;;;3.97;;
45620;SDS011;31345;51.522;10.702;2022-07-23T04:19:07;4.97;;;3.88;;
45620;SDS011;31345;51.522;10.702;2022-07-23T04:21:46;4.85;;;3.42;;
45620;SDS011;31345;51.522;10.702;2022-07-23T04:24:14;4.78;;;3.40;;
45620;SDS011;31345;51.522;10.702;2022-07-23T04:26:41;4.85;;;3.97;;
45620;SDS011;31345;51.522;10.702;2022-07-23T04:29:10;6.57;;;3.78;;
45620;SDS011;31345;51.522;10.702;2022-07-23T04:31:38;6.55;;;3.55;;
45620;SDS011;31345;51.522;10.702;2022-07-23T04:34:07;5.13;;;4.28;;
45620;SDS011;31345;51.522;10.702;2022-07-23T04:36:34;6.22;;;4.50;;
45620;SDS011;31345;51.522;10.702;2022-07-23T04:39:02;6.75;;;5.80;;
45620;SDS011;31345;51.522;10.702;2022-07-23T04:41:31;8.07;;;5.60;;
45620;SDS011;31345;51.522;10.702;2022-07-23T04:43:58;7.00;;;5.72;;
45620;SDS011;31345;51.522;10.702;2022-07-23T04:46:29;6.28;;;5.53;;
45620;SDS011;31345;51.522;10.702;2022-07-23T04:48:57;7.78;;;6.88;;
45620;SDS011;31345;51.522;10.702;2022-07-23T04:51:24;8.45;;;6.75;;
45620;SDS011;31345;51.522;10.702;2022-07-23T04:53:52;9.73;;;7.40;;
45620;SDS011;31345;51.522;10.702;2022-07-23T04:56:20;12.68;;;7.22;;
45620;SDS011;31345;51.522;10.702;2022-07-23T04:58:48;9.52;;;6.70;;
45620;SDS011;31345;51.522;10.702;2022-07-23T05:01:17;9.23;;;7.38;;
45620;SDS011;31345;51.522;10.702;2022-07-23T05:03:46;10.98;;;8.68;;
45620;SDS011;31345;51.522;10.702;2022-07-23T05:06:15;9.52;;;8.10;;
45620;SDS011;31345;51.522;10.702;2022-07-23T05:08:43;11.70;;;8.27;;
45620;SDS011;31345;51.522;10.702;2022-07-23T05:11:11;12.20;;;8.98;;
45620;SDS011;31345;51.522;10.702;2022-07-23T05:13:39;10.73;;;8.88;;
45620;SDS011;31345;51.522;10.702;2022-07-23T05:16:08;11.10;;;9.30;;
45620;SDS011;31345;51.522;10.702;2022-07-23T05:18:36;11.27;;;8.80;;
45620;SDS011;31345;51.522;10.702;2022-07-23T05:21:05;10.35;;;8.43;;
45620;SDS011;31345;51.522;10.702;2022-07-23T05:23:34;10.90;;;8.80;;
45620;SDS011;31345;51.522;10.702;2022-07-23T05:26:01;9.18;;;8.18;;
45620;SDS011;31345;51.522;10.702;2022-07-23T05:28:29;9.85;;;8.43;;
45620;SDS011;31345;51.522;10.702;2022-07-23T05:30:57;9.77;;;8.13;;
45620;SDS011;31345;51.522;10.702;2022-07-23T05:33:28;9.90;;;7.85;;
45620;SDS011;31345;51.522;10.702;2022-07-23T05:35:59;9.75;;;8.30;;
45620;SDS011;31345;51.522;10.702;2022-07-23T05:38:31;9.73;;;7.53;;
45620;SDS011;31345;51.522;10.702;2022-07-23T05:41:00;14.85;;;8.77;;
45620;SDS011;31345;51.522;10.702;2022-07-23T05:43:30;11.30;;;8.00;;
45620;SDS011;31345;51.522;10.702;2022-07-23T05:46:01;13.77;;;9.80;;
45620;SDS011;31345;51.522;10.702;2022-07-23T05:48:29;11.52;;;8.57;;
45620;SDS011;31345;51.522;10.702;2022-07-23T05:51:02;12.35;;;8.18;;
45620;SDS011;31345;51.522;10.702;2022-07-23T05:53:34;13.00;;;9.70;;
45620;SDS011;31345;51.522;10.702;2022-07-23T05:56:07;11.38;;;10.18;;
45620;SDS011;31345;51.522;10.702;2022-07-23T05:58:36;12.73;;;10.52;;
45620;SDS011;31345;51.522;10.702;2022-07-23T06:01:04;13.90;;;10.32;;
45620;SDS011;31345;51.522;10.702;2022-07-23T06:03:40;11.85;;;9.77;;
45620;SDS011;31345;51.522;10.702;2022-07-23T06:06:08;12.23;;;9.55;;
45620;SDS011;31345;51.522;10.702;2022-07-23T06:08:39;14.75;;;11.80;;
45620;SDS011;31345;51.522;10.702;2022-07-23T06:11:08;16.67;;;11.35;;
45620;SDS011;31345;51.522;10.702;2022-07-23T06:13:36;16.30;;;11.43;;
45620;SDS011;31345;51.522;10.702;2022-07-23T06:16:04;18.15;;;12.43;;
45620;SDS011;31345;51.522;10.702;2022-07-23T06:18:32;15.73;;;12.18;;
45620;SDS011;31345;51.522;10.702;2022-07-23T06:21:00;15.10;;;12.00;;
45620;SDS011;31345;51.522;10.702;2022-07-23T06:23:27;20.42;;;12.15;;
45620;SDS011;31345;51.522;10.702;2022-07-23T06:25:56;16.98;;;12.95;;
45620;SDS011;31345;51.522;10.702;2022-07-23T06:28:24;16.75;;;12.57;;
45620;SDS011;31345;51.522;10.702;2022-07-23T06:30:52;15.02;;;12.23;;
45620;SDS011;31345;51.522;10.702;2022-07-23T06:33:20;16.10;;;11.90;;
45620;SDS011;31345;51.522;10.702;2022-07-23T06:35:48;14.75;;;11.95;;
45620;SDS011;31345;51.522;10.702;2022-07-23T06:38:15;18.48;;;12.90;;
45620;SDS011;31345;51.522;10.702;2022-07-23T06:40:43;13.65;;;11.57;;
45620;SDS011;31345;51.522;10.702;2022-07-23T06:43:12;17.17;;;13.05;;
45620;SDS011;31345;51.522;10.702;2022-07-23T06:45:40;19.17;;;12.90;;
45620;SDS011;31345;51.522;10.702;2022-07-23T06:48:08;19.90;;;12.90;;
45620;SDS011;31345;51.522;10.702;2022-07-23T06:50:35;17.05;;;13.02;;
45620;SDS011;31345;51.522;10.702;2022-07-23T06:53:03;15.85;;;11.95;;
45620;SDS011;31345;51.522;10.702;2022-07-23T06:55:31;21.13;;;14.77;;
45620;SDS011;31345;51.522;10.702;2022-07-23T06:58:01;18.17;;;13.95;;
45620;SDS011;31345;51.522;10.702;2022-07-23T07:00:30;21.55;;;13.20;;
45620;SDS011;31345;51.522;10.702;2022-07-23T07:02:58;18.85;;;13.55;;
45620;SDS011;31345;51.522;10.702;2022-07-23T07:05:26;15.43;;;12.98;;
45620;SDS011;31345;51.522;10.702;2022-07-23T07:07:54;15.73;;;13.38;;
45620;SDS011;31345;51.522;10.702;2022-07-23T07:10:24;17.35;;;13.90;;
45620;SDS011;31345;51.522;10.702;2022-07-23T07:12:52;15.15;;;12.55;;
45620;SDS011;31345;51.522;10.702;2022-07-23T07:15:19;18.63;;;12.65;;
45620;SDS011;31345;51.522;10.702;2022-07-23T07:17:48;16.08;;;12.38;;
45620;SDS011;31345;51.522;10.702;2022-07-23T07:20:16;15.55;;;11.88;;
45620;SDS011;31345;51.522;10.702;2022-07-23T07:22:43;13.52;;;11.75;;
45620;SDS011;31345;51.522;10.702;2022-07-23T07:25:11;15.43;;;11.98;;
45620;SDS011;31345;51.522;10.702;2022-07-23T07:27:38;15.38;;;11.90;;
45620;SDS011;31345;51.522;10.702;2022-07-23T07:30:06;15.10;;;11.18;;
45620;SDS011;31345;51.522;10.702;2022-07-23T07:32:35;14.43;;;11.57;;
45620;SDS011;31345;51.522;10.702;2022-07-23T07:35:05;12.98;;;11.57;;
45620;SDS011;31345;51.522;10.702;2022-07-23T07:37:33;16.10;;;10.85;;
45620;SDS011;31345;51.522;10.702;2022-07-23T07:40:01;16.48;;;11.95;;
45620;SDS011;31345;51.522;10.702;2022-07-23T07:42:29;12.18;;;10.88;;
45620;SDS011;31345;51.522;10.702;2022-07-23T07:44:58;16.45;;;12.43;;
45620;SDS011;31345;51.522;10.702;2022-07-23T07:47:26;14.50;;;12.05;;
45620;SDS011;31345;51.522;10.702;2022-07-23T07:49:53;15.77;;;12.07;;
45620;SDS011;31345;51.522;10.702;2022-07-23T07:52:23;16.08;;;13.05;;
45620;SDS011;31345;51.522;10.702;2022-07-23T07:54:51;14.50;;;11.63;;
45620;SDS011;31345;51.522;10.702;2022-07-23T07:57:18;17.90;;;12.65;;
45620;SDS011;31345;51.522;10.702;2022-07-23T07:59:46;12.45;;;11.15;;
45620;SDS011;31345;51.522;10.702;2022-07-23T08:02:13;14.65;;;11.98;;
45620;SDS011;31345;51.522;10.702;2022-07-23T08:04:41;15.05;;;12.20;;
45620;SDS011;31345;51.522;10.702;2022-07-23T08:07:08;14.30;;;11.45;;
45620;SDS011;31345;51.522;10.702;2022-07-23T08:09:37;15.20;;;12.25;;
45620;SDS011;31345;51.522;10.702;2022-07-23T08:12:05;13.60;;;11.25;;
45620;SDS011;31345;51.522;10.702;2022-07-23T08:14:33;15.07;;;10.73;;
45620;SDS011;31345;51.522;10.702;2022-07-23T08:17:01;14.70;;;10.77;;
45620;SDS011;31345;51.522;10.702;2022-07-23T08:19:28;13.80;;;10.98;;
45620;SDS011;31345;51.522;10.702;2022-07-23T08:21:56;14.68;;;11.98;;
45620;SDS011;31345;51.522;10.702;2022-07-23T08:24:23;13.05;;;11.48;;
45620;SDS011;31345;51.522;10.702;2022-07-23T08:26:52;15.55;;;11.25;;
45620;SDS011;31345;51.522;10.702;2022-07-23T08:29:20;11.52;;;10.18;;
45620;SDS011;31345;51.522;10.702;2022-07-23T08:31:47;13.38;;;10.35;;
45620;SDS011;31345;51.522;10.702;2022-07-23T08:34:15;13.52;;;10.75;;
45620;SDS011;31345;51.522;10.702;2022-07-23T08:36:42;12.27;;;10.02;;
45620;SDS011;31345;51.522;10.702;2022-07-23T08:39:10;11.88;;;10.68;;
45620;SDS011;31345;51.522;10.702;2022-07-23T08:41:39;13.10;;;10.90;;
45620;SDS011;31345;51.522;10.702;2022-07-23T08:44:09;13.07;;;10.60;;
45620;SDS011;31345;51.522;10.702;2022-07-23T08:46:37;15.77;;;11.20;;
45620;SDS011;31345;51.522;10.702;2022-07-23T08:49:06;14.13;;;10.60;;
45620;SDS011;31345;51.522;10.702;2022-07-23T08:51:34;12.60;;;10.70;;
45620;SDS011;31345;51.522;10.702;2022-07-23T08:54:02;17.05;;;10.85;;
45620;SDS011;31345;51.522;10.702;2022-07-23T08:56:31;14.60;;;10.35;;
45620;SDS011;31345;51.522;10.702;2022-07-23T08:58:59;12.45;;;8.88;;
45620;SDS011;31345;51.522;10.702;2022-07-23T09:01:27;11.68;;;8.80;;
45620;SDS011;31345;51.522;10.702;2022-07-23T09:03:55;8.60;;;7.25;;
45620;SDS011;31345;51.522;10.702;2022-07-23T09:06:22;12.05;;;7.30;;
45620;SDS011;31345;51.522;10.702;2022-07-23T09:08:51;10.27;;;7.95;;
45620;SDS011;31345;51.522;10.702;2022-07-23T09:11:19;10.98;;;8.02;;
45620;SDS011;31345;51.522;10.702;2022-07-23T09:13:47;10.43;;;8.05;;
45620;SDS011;31345;51.522;10.702;2022-07-23T09:16:16;12.52;;;8.90;;
45620;SDS011;31345;51.522;10.702;2022-07-23T09:18:47;10.93;;;9.02;;
45620;SDS011;31345;51.522;10.702;2022-07-23T09:21:23;10.00;;;8.23;;
45620;SDS011;31345;51.522;10.702;2022-07-23T09:23:53;9.80;;;7.35;;
45620;SDS011;31345;51.522;10.702;2022-07-23T09:26:23;10.65;;;7.68;;
45620;SDS011;31345;51.522;10.702;2022-07-23T09:29:04;11.10;;;6.80;;
45620;SDS011;31345;51.522;10.702;2022-07-23T09:31:41;10.45;;;7.55;;
45620;SDS011;31345;51.522;10.702;2022-07-23T09:34:13;8.93;;;7.28;;
45620;SDS011;31345;51.522;10.702;2022-07-23T09:36:42;9.98;;;6.93;;
45620;SDS011;31345;51.522;10.702;2022-07-23T09:39:10;9.20;;;6.03;;
45620;SDS011;31345;51.522;10.702;2022-07-23T09:41:40;11.32;;;6.32;;
45620;SDS011;31345;51.522;10.702;2022-07-23T09:44:10;8.55;;;5.80;;
45620;SDS011;31345;51.522;10.702;2022-07-23T09:46:42;9.25;;;5.80;;
45620;SDS011;31345;51.522;10.702;2022-07-23T09:49:16;7.63;;;5.35;;
45620;SDS011;31345;51.522;10.702;2022-07-23T09:51:46;7.35;;;4.80;;
45620;SDS011;31345;51.522;10.702;2022-07-23T09:54:22;8.98;;;5.50;;
45620;SDS011;31345;51.522;10.702;2022-07-23T09:56:58;7.47;;;4.97;;
45620;SDS011;31345;51.522;10.702;2022-07-23T09:59:28;9.68;;;4.38;;
45620;SDS011;31345;51.522;10.702;2022-07-23T10:01:59;7.78;;;4.65;;
45620;SDS011;31345;51.522;10.702;2022-07-23T10:04:34;6.90;;;4.22;;
45620;SDS011;31345;51.522;10.702;2022-07-23T10:07:25;9.38;;;5.07;;
45620;SDS011;31345;51.522;10.702;2022-07-23T10:10:15;10.73;;;5.18;;
45620;SDS011;31345;51.522;10.702;2022-07-23T10:13:01;7.28;;;5.03;;
45620;SDS011;31345;51.522;10.702;2022-07-23T10:15:52;8.15;;;5.32;;
45620;SDS011;31345;51.522;10.702;2022-07-23T10:18:20;9.20;;;4.75;;
45620;SDS011;31345;51.522;10.702;2022-07-23T10:20:49;8.98;;;4.18;;
45620;SDS011;31345;51.522;10.702;2022-07-23T10:23:18;7.28;;;3.90;;
45620;SDS011;31345;51.522;10.702;2022-07-23T10:25:58;4.75;;;3.78;;
45620;SDS011;31345;51.522;10.702;2022-07-23T10:28:45;6.32;;;4.03;;
45620;SDS011;31345;51.522;10.702;2022-07-23T10:31:28;8.13;;;4.22;;
45620;SDS011;31345;51.522;10.702;2022-07-23T10:34:04;5.60;;;4.20;;
45620;SDS011;31345;51.522;10.702;2022-07-23T10:39:13;5.95;;;4.05;;
45620;SDS011;31345;51.522;10.702;2022-07-23T10:41:45;8.48;;;4.53;;
45620;SDS011;31345;51.522;10.702;2022-07-23T10:44:14;5.45;;;4.00;;
45620;SDS011;31345;51.522;10.702;2022-07-23T10:46:57;6.45;;;4.10;;
45620;SDS011;31345;51.522;10.702;2022-07-23T10:49:35;8.60;;;4.47;;
45620;SDS011;31345;51.522;10.702;2022-07-23T10:52:22;7.97;;;4.57;;
45620;SDS011;31345;51.522;10.702;2022-07-23T10:54:53;5.22;;;3.72;;
45620;SDS011;31345;51.522;10.702;2022-07-23T10:57:24;6.32;;;4.10;;
45620;SDS011;31345;51.522;10.702;2022-07-23T11:02:47;4.90;;;3.88;;
45620;SDS011;31345;51.522;10.702;2022-07-23T11:05:17;7.20;;;4.70;;
45620;SDS011;31345;51.522;10.702;2022-07-23T11:10:44;6.50;;;4.45;;
45620;SDS011;31345;51.522;10.702;2022-07-23T11:16:03;5.30;;;4.27;;
45620;SDS011;31345;51.522;10.702;2022-07-23T11:18:52;11.15;;;5.70;;
45620;SDS011;31345;51.522;10.702;2022-07-23T11:24:23;6.85;;;4.80;;
45620;SDS011;31345;51.522;10.702;2022-07-23T11:26:57;8.38;;;5.45;;
45620;SDS011;31345;51.522;10.702;2022-07-23T11:29:40;6.38;;;4.53;;
45620;SDS011;31345;51.522;10.702;2022-07-23T11:32:19;6.75;;;4.60;;
45620;SDS011;31345;51.522;10.702;2022-07-23T11:34:51;8.05;;;5.07;;
45620;SDS011;31345;51.522;10.702;2022-07-23T11:37:29;5.75;;;4.45;;
45620;SDS011;31345;51.522;10.702;2022-07-23T11:40:00;5.88;;;3.72;;
45620;SDS011;31345;51.522;10.702;2022-07-23T11:42:33;6.38;;;3.65;;
45620;SDS011;31345;51.522;10.702;2022-07-23T11:45:02;7.28;;;4.32;;
45620;SDS011;31345;51.522;10.702;2022-07-23T11:47:30;7.07;;;4.40;;
45620;SDS011;31345;51.522;10.702;2022-07-23T11:49:58;5.57;;;3.92;;
45620;SDS011;31345;51.522;10.702;2022-07-23T11:52:28;6.28;;;3.97;;
45620;SDS011;31345;51.522;10.702;2022-07-23T11:54:57;6.30;;;3.70;;
45620;SDS011;31345;51.522;10.702;2022-07-23T11:57:31;6.38;;;3.85;;
45620;SDS011;31345;51.522;10.702;2022-07-23T12:00:17;4.47;;;3.53;;
45620;SDS011;31345;51.522;10.702;2022-07-23T12:02:46;6.90;;;3.38;;
45620;SDS011;31345;51.522;10.702;2022-07-23T12:05:16;6.80;;;3.20;;
45620;SDS011;31345;51.522;10.702;2022-07-23T12:07:46;7.13;;;3.60;;
45620;SDS011;31345;51.522;10.702;2022-07-23T12:10:16;5.22;;;2.75;;
45620;SDS011;31345;51.522;10.702;2022-07-23T12:12:48;5.10;;;3.10;;
45620;SDS011;31345;51.522;10.702;2022-07-23T12:15:19;5.10;;;3.17;;
45620;SDS011;31345;51.522;10.702;2022-07-23T12:17:49;5.50;;;3.03;;
45620;SDS011;31345;51.522;10.702;2022-07-23T12:20:20;5.68;;;3.78;;
45620;SDS011;31345;51.522;10.702;2022-07-23T12:22:51;5.35;;;3.42;;
45620;SDS011;31345;51.522;10.702;2022-07-23T12:25:20;7.82;;;3.47;;
45620;SDS011;31345;51.522;10.702;2022-07-23T12:27:59;5.85;;;3.10;;
45620;SDS011;31345;51.522;10.702;2022-07-23T12:30:30;6.72;;;3.30;;
45620;SDS011;31345;51.522;10.702;2022-07-23T12:32:59;6.60;;;3.60;;
45620;SDS011;31345;51.522;10.702;2022-07-23T12:35:31;6.70;;;2.90;;
45620;SDS011;31345;51.522;10.702;2022-07-23T12:38:27;5.18;;;2.85;;
45620;SDS011;31345;51.522;10.702;2022-07-23T12:41:03;6.35;;;3.08;;
45620;SDS011;31345;51.522;10.702;2022-07-23T12:43:32;6.13;;;3.60;;
45620;SDS011;31345;51.522;10.702;2022-07-23T12:46:03;6.07;;;3.13;;
45620;SDS011;31345;51.522;10.702;2022-07-23T12:48:32;4.25;;;3.20;;
45620;SDS011;31345;51.522;10.702;2022-07-23T12:51:02;5.88;;;2.92;;
45620;SDS011;31345;51.522;10.702;2022-07-23T12:53:32;8.55;;;3.35;;
45620;SDS011;31345;51.522;10.702;2022-07-23T12:56:06;4.72;;;3.30;;
45620;SDS011;31345;51.522;10.702;2022-07-23T12:58:44;5.05;;;2.88;;
45620;SDS011;31345;51.522;10.702;2022-07-23T13:01:22;4.28;;;3.00;;
45620;SDS011;31345;51.522;10.702;2022-07-23T13:03:56;6.75;;;2.85;;
45620;SDS011;31345;51.522;10.702;2022-07-23T13:06:29;5.90;;;3.13;;
45620;SDS011;31345;51.522;10.702;2022-07-23T13:08:59;6.30;;;3.15;;
45620;SDS011;31345;51.522;10.702;2022-07-23T13:11:27;3.80;;;2.85;;
45620;SDS011;31345;51.522;10.702;2022-07-23T13:13:56;5.03;;;2.72;;
45620;SDS011;31345;51.522;10.702;2022-07-23T13:16:23;7.90;;;3.15;;
45620;SDS011;31345;51.522;10.702;2022-07-23T13:18:51;3.33;;;2.80;;
45620;SDS011;31345;51.522;10.702;2022-07-23T13:21:19;4.82;;;3.03;;
45620;SDS011;31345;51.522;10.702;2022-07-23T13:23:47;4.43;;;2.83;;
45620;SDS011;31345;51.522;10.702;2022-07-23T13:26:15;5.32;;;3.50;;
45620;SDS011;31345;51.522;10.702;2022-07-23T13:28:43;5.20;;;3.55;;
45620;SDS011;31345;51.522;10.702;2022-07-23T13:31:12;5.93;;;3.75;;
45620;SDS011;31345;51.522;10.702;2022-07-23T13:33:40;5.63;;;3.03;;
45620;SDS011;31345;51.522;10.702;2022-07-23T13:36:07;4.30;;;3.17;;
45620;SDS011;31345;51.522;10.702;2022-07-23T13:38:36;5.68;;;3.50;;
45620;SDS011;31345;51.522;10.702;2022-07-23T13:41:05;4.82;;;3.85;;
45620;SDS011;31345;51.522;10.702;2022-07-23T13:43:33;5.30;;;3.75;;
45620;SDS011;31345;51.522;10.702;2022-07-23T13:46:01;6.65;;;3.53;;
45620;SDS011;31345;51.522;10.702;2022-07-23T13:48:32;4.95;;;3.25;;
45620;SDS011;31345;51.522;10.702;2022-07-23T13:51:03;4.35;;;3.10;;
45620;SDS011;31345;51.522;10.702;2022-07-23T13:53:30;5.25;;;3.47;;
45620;SDS011;31345;51.522;10.702;2022-07-23T13:55:58;6.32;;;3.10;;
45620;SDS011;31345;51.522;10.702;2022-07-23T13:58:26;4.95;;;3.22;;
45620;SDS011;31345;51.522;10.702;2022-07-23T14:04:31;6.20;;;3.15;;
45620;SDS011;31345;51.522;10.702;2022-07-23T14:06:59;5.72;;;3.08;;
45620;SDS011;31345;51.522;10.702;2022-07-23T14:09:46;4.82;;;3.28;;
45620;SDS011;31345;51.522;10.702;2022-07-23T14:17:39;4.68;;;2.90;;
45620;SDS011;31345;51.522;10.702;2022-07-23T14:20:10;4.55;;;2.72;;
45620;SDS011;31345;51.522;10.702;2022-07-23T14:22:39;4.45;;;3.00;;
45620;SDS011;31345;51.522;10.702;2022-07-23T14:25:07;5.97;;;2.55;;
45620;SDS011;31345;51.522;10.702;2022-07-23T14:27:36;6.20;;;2.60;;
45620;SDS011;31345;51.522;10.702;2022-07-23T14:30:06;5.50;;;3.00;;
45620;SDS011;31345;51.522;10.702;2022-07-23T14:32:45;4.68;;;2.78;;
45620;SDS011;31345;51.522;10.702;2022-07-23T14:35:16;3.97;;;2.53;;
45620;SDS011;31345;51.522;10.702;2022-07-23T14:37:49;3.58;;;2.65;;
45620;SDS011;31345;51.522;10.702;2022-07-23T14:40:17;4.70;;;2.50;;
45620;SDS011;31345;51.522;10.702;2022-07-23T14:42:45;5.72;;;2.67;;
45620;SDS011;31345;51.522;10.702;2022-07-23T14:45:13;4.00;;;2.47;;
45620;SDS011;31345;51.522;10.702;2022-07-23T14:47:41;5.50;;;2.50;;
45620;SDS011;31345;51.522;10.702;2022-07-23T14:50:21;4.00;;;2.60;;
45620;SDS011;31345;51.522;10.702;2022-07-23T14:52:52;4.82;;;2.67;;
45620;SDS011;31345;51.522;10.702;2022-07-23T14:55:24;3.17;;;2.45;;
45620;SDS011;31345;51.522;10.702;2022-07-23T14:57:52;5.18;;;2.72;;
45620;SDS011;31345;51.522;10.702;2022-07-23T15:00:20;3.78;;;2.60;;
45620;SDS011;31345;51.522;10.702;2022-07-23T15:02:47;4.28;;;2.45;;
45620;SDS011;31345;51.522;10.702;2022-07-23T15:05:15;3.33;;;2.40;;